Time;durP1;ratioP1;P1;durP2;ratioP2;P2;SDS_P1;SDS_P2;PMS_P1;PMS_P2;Temp;Humidity;BMP_temperature;BMP_pressure;BME280_temperature;BME280_humidity;BME280_pressure;Samples;Min_cycle;Max_cycle;Signal;HPM_P1;HPM_P2
2021/03/31 00:00:31;;;;;;;2.73;2.50;;;;;;;0.42;100.00;101457.81;1747718;82;21016;-67
2021/03/31 00:03:01;;;;;;;3.23;2.20;;;;;;;0.42;100.00;101455.15;1747621;82;20948;-67
2021/03/31 00:05:29;;;;;;;3.70;2.77;;;;;;;0.43;100.00;101450.71;1747665;82;21003;-67
2021/03/31 00:07:57;;;;;;;3.67;2.20;;;;;;;0.44;100.00;101449.76;1747830;82;21383;-66
2021/03/31 00:10:32;;;;;;;6.43;2.40;;;;;;;0.45;100.00;101451.02;1747642;82;21031;-67
2021/03/31 00:13:01;;;;;;;2.47;2.27;;;;;;;0.46;100.00;101447.88;1747762;82;20967;-65
2021/03/31 00:15:29;;;;;;;7.33;3.50;;;;;;;0.46;100.00;101444.78;1747654;81;21025;-67
2021/03/31 00:18:00;;;;;;;1.57;1.50;;;;;;;0.46;100.00;101444.78;1744167;82;20956;-66
2021/03/31 00:20:30;;;;;;;2.90;1.87;;;;;;;0.45;100.00;101447.03;1752584;81;20954;-66
2021/03/31 00:22:58;;;;;;;6.57;2.87;;;;;;;0.45;100.00;101432.88;1767623;81;20969;-67
2021/03/31 00:25:26;;;;;;;5.63;3.23;;;;;;;0.45;100.00;101437.72;1762875;80;21008;-67
2021/03/31 00:27:55;;;;;;;2.60;2.40;;;;;;;0.43;100.00;101432.94;1734673;82;21013;-67
2021/03/31 00:30:25;;;;;;;11.80;3.97;;;;;;;0.42;100.00;101440.51;1734801;82;20988;-67
2021/03/31 00:32:52;;;;;;;12.00;6.33;;;;;;;0.41;100.00;101433.48;1735060;82;22259;-67
2021/03/31 00:35:21;;;;;;;13.70;7.37;;;;;;;0.40;100.00;101441.05;1740217;81;20941;-66
2021/03/31 00:37:49;;;;;;;17.33;7.77;;;;;;;0.39;100.00;101432.70;1758022;81;21032;-67
2021/03/31 00:40:19;;;;;;;20.53;8.63;;;;;;;0.36;100.00;101427.03;1734953;82;20933;-66
2021/03/31 00:42:47;;;;;;;7.80;4.97;;;;;;;0.34;100.00;101426.72;1740260;82;20901;-66
2021/03/31 00:45:17;;;;;;;7.13;5.47;;;;;;;0.31;100.00;101430.37;1758089;81;21211;-67
2021/03/31 00:47:45;;;;;;;6.53;3.57;;;;;;;0.30;100.00;101425.11;1734953;82;21192;-66
2021/03/31 00:50:17;;;;;;;4.30;3.23;;;;;;;0.31;100.00;101426.86;1740224;82;21004;-66
2021/03/31 00:52:48;;;;;;;4.42;2.80;;;;;;;0.30;100.00;101421.13;1758262;81;21001;-67
2021/03/31 00:55:17;;;;;;;7.77;3.57;;;;;;;0.28;100.00;101422.52;1758140;81;21032;-67
2021/03/31 00:57:45;;;;;;;6.27;2.70;;;;;;;0.28;100.00;101422.52;1735128;81;22279;-67
2021/03/31 01:00:14;;;;;;;7.70;3.87;;;;;;;0.28;100.00;101426.98;1740208;82;20996;-67
2021/03/31 01:02:42;;;;;;;10.20;4.80;;;;;;;0.25;100.00;101428.01;1757951;81;21048;-67
2021/03/31 01:05:16;;;;;;;3.17;2.77;;;;;;;0.23;100.00;101427.22;1734947;82;20941;-67
2021/03/31 01:07:46;;;;;;;5.13;2.67;;;;;;;0.22;100.00;101430.80;1740182;82;21156;-67
2021/03/31 01:10:16;;;;;;;8.30;2.90;;;;;;;0.21;100.00;101432.20;1758191;81;21202;-67
2021/03/31 01:13:24;;;;;;;9.97;5.93;;;;;;;0.18;100.00;101431.89;1734905;82;21080;-67
2021/03/31 01:16:20;;;;;;;15.63;8.27;;;;;;;0.16;100.00;101431.95;1740191;82;20965;-66
2021/03/31 01:19:05;;;;;;;28.47;9.30;;;;;;;0.15;100.00;101430.21;1758100;81;21017;-67
2021/03/31 01:22:05;;;;;;;18.70;6.50;;;;;;;0.11;100.00;101431.77;1777030;80;21041;-65
2021/03/31 01:25:01;;;;;;;13.47;5.80;;;;;;;0.09;100.00;101432.28;1784776;80;21217;-67
2021/03/31 01:27:57;;;;;;;24.33;8.17;;;;;;;0.06;100.00;101433.30;1789146;80;21001;-67
2021/03/31 01:30:55;;;;;;;12.93;5.20;;;;;;;0.01;100.00;101433.11;1789273;80;20993;-67
2021/03/31 01:33:56;;;;;;;7.20;3.93;;;;;;;-0.03;100.00;101429.25;1789212;80;21020;-67
2021/03/31 01:36:25;;;;;;;21.27;2.93;;;;;;;-0.04;100.00;101435.97;1708499;83;21118;-68
2021/03/31 01:38:55;;;;;;;6.13;3.73;;;;;;;-0.08;100.00;101425.94;1667397;86;21231;-67
2021/03/31 01:41:24;;;;;;;5.77;3.10;;;;;;;-0.09;100.00;101426.00;1715316;83;21018;-67
2021/03/31 01:43:55;;;;;;;14.57;4.93;;;;;;;-0.13;100.00;101419.95;1715570;83;21090;-67
2021/03/31 01:46:29;;;;;;;6.20;3.23;;;;;;;-0.14;100.00;101430.66;1717674;82;21024;-67
2021/03/31 01:48:59;;;;;;;5.78;3.83;;;;;;;-0.17;100.00;101429.48;1719698;83;21525;-66
2021/03/31 01:51:29;;;;;;;6.20;3.43;;;;;;;-0.22;100.00;101423.03;1719401;83;22226;-66
2021/03/31 01:53:58;;;;;;;5.40;4.03;;;;;;;-0.26;100.00;101426.29;1719314;82;21588;-67
2021/03/31 01:56:26;;;;;;;5.20;2.73;;;;;;;-0.28;100.00;101421.98;1719358;83;21019;-67
2021/03/31 01:58:55;;;;;;;4.80;3.30;;;;;;;-0.31;100.00;101423.45;1719229;83;21023;-67
2021/03/31 02:01:23;;;;;;;7.97;4.43;;;;;;;-0.33;100.00;101419.99;1719379;83;20992;-66
2021/03/31 02:03:53;;;;;;;9.63;3.87;;;;;;;-0.32;100.00;101424.36;1718817;83;21396;-68
2021/03/31 02:06:23;;;;;;;7.30;4.40;;;;;;;-0.29;100.00;101421.58;1719440;83;21039;-66
2021/03/31 02:08:51;;;;;;;5.30;3.57;;;;;;;-0.28;100.00;101421.52;1720680;83;20952;-65
2021/03/31 02:11:21;;;;;;;18.40;7.10;;;;;;;-0.27;100.00;101424.55;1722448;83;20972;-65
2021/03/31 02:13:51;;;;;;;14.30;6.93;;;;;;;-0.26;100.00;101418.80;1787935;79;20915;-66
2021/03/31 02:16:19;;;;;;;15.20;4.70;;;;;;;-0.25;100.00;101424.48;1817508;79;21133;-66
2021/03/31 02:18:49;;;;;;;7.30;4.57;;;;;;;-0.25;100.00;101419.17;1813765;79;21023;-67
2021/03/31 02:21:17;;;;;;;6.60;4.03;;;;;;;-0.22;100.00;101427.02;1844160;77;20926;-66
2021/03/31 02:23:45;;;;;;;5.80;3.50;;;;;;;-0.21;100.00;101419.45;1859690;77;21032;-66
2021/03/31 02:26:14;;;;;;;4.00;2.53;;;;;;;-0.19;100.00;101413.59;1836105;77;20970;-66
2021/03/31 02:28:42;;;;;;;10.07;6.20;;;;;;;-0.16;100.00;101420.56;1746286;81;21202;-67
2021/03/31 02:31:10;;;;;;;20.30;8.47;;;;;;;-0.17;100.00;101414.86;1769432;80;20993;-66
2021/03/31 02:33:38;;;;;;;29.70;13.47;;;;;;;-0.16;100.00;101419.23;1782437;80;20927;-67
2021/03/31 02:36:06;;;;;;;21.63;10.10;;;;;;;-0.15;100.00;101417.84;1756369;81;20996;-66
2021/03/31 02:38:34;;;;;;;20.83;10.07;;;;;;;-0.13;100.00;101420.43;1776789;80;21029;-67
2021/03/31 02:41:04;;;;;;;15.57;8.90;;;;;;;-0.12;100.00;101427.02;1728298;81;21016;-65
2021/03/31 02:43:33;;;;;;;19.77;9.17;;;;;;;-0.10;100.00;101418.50;1755908;81;21004;-65
2021/03/31 02:46:02;;;;;;;27.13;11.10;;;;;;;-0.06;100.00;101419.22;1747899;81;21023;-66
2021/03/31 02:48:29;;;;;;;34.60;13.57;;;;;;;-0.03;100.00;101419.09;1770315;81;21020;-66
2021/03/31 02:50:58;;;;;;;20.77;9.03;;;;;;;0.01;100.00;101421.14;1770411;81;20882;-66
2021/03/31 02:53:26;;;;;;;15.20;7.67;;;;;;;0.04;100.00;101416.55;1769922;81;22291;-67
2021/03/31 02:55:56;;;;;;;11.97;5.53;;;;;;;0.07;100.00;101421.73;1770353;81;21028;-67
2021/03/31 02:58:24;;;;;;;11.17;5.93;;;;;;;0.09;100.00;101411.00;1770411;81;20988;-67
2021/03/31 03:00:52;;;;;;;5.80;3.83;;;;;;;0.12;100.00;101413.05;1770464;81;21016;-66
2021/03/31 03:03:19;;;;;;;4.97;3.03;;;;;;;0.13;100.00;101407.29;1770347;81;21074;-66
2021/03/31 03:05:47;;;;;;;4.53;3.33;;;;;;;0.12;100.00;101410.88;1770519;81;21390;-67
2021/03/31 03:08:15;;;;;;;11.10;6.60;;;;;;;0.10;100.00;101409.61;1770463;80;21013;-67
2021/03/31 03:10:43;;;;;;;19.93;7.77;;;;;;;0.06;100.00;101406.70;1770618;81;20989;-66
2021/03/31 03:13:13;;;;;;;13.57;6.57;;;;;;;0.04;100.00;101407.72;1740982;81;21036;-67
2021/03/31 03:15:42;;;;;;;23.23;11.00;;;;;;;-0.01;100.00;101404.78;1770551;81;21024;-68
2021/03/31 03:18:13;;;;;;;9.70;5.23;;;;;;;-0.05;100.00;101399.69;1770594;81;21349;-66
2021/03/31 03:20:41;;;;;;;8.83;6.53;;;;;;;-0.08;100.00;101403.33;1766023;81;21570;-66
2021/03/31 03:23:09;;;;;;;14.77;7.87;;;;;;;-0.10;100.00;101399.03;1759538;81;20977;-66
2021/03/31 03:25:37;;;;;;;14.40;8.30;;;;;;;-0.11;100.00;101395.96;1760889;81;20993;-67
2021/03/31 03:28:05;;;;;;;33.53;10.50;;;;;;;-0.14;100.00;101387.67;1759807;81;20997;-67
2021/03/31 03:30:33;;;;;;;16.50;8.93;;;;;;;-0.13;100.00;101389.85;1759690;81;21509;-66
2021/03/31 03:33:01;;;;;;;10.03;4.90;;;;;;;-0.13;100.00;101389.37;1759690;81;21013;-66
2021/03/31 03:35:30;;;;;;;17.77;7.07;;;;;;;-0.14;100.00;101380.14;1759786;81;21009;-67
2021/03/31 03:37:59;;;;;;;8.80;3.30;;;;;;;-0.14;100.00;101382.80;1759623;81;20997;-66
2021/03/31 03:40:28;;;;;;;8.23;3.03;;;;;;;-0.15;100.00;101369.13;1759816;81;20966;-66
2021/03/31 03:42:56;;;;;;;6.60;4.10;;;;;;;-0.15;100.00;101370.45;1759613;81;21055;-67
2021/03/31 03:45:25;;;;;;;8.70;3.93;;;;;;;-0.18;100.00;101370.11;1759628;81;21598;-67
2021/03/31 03:47:54;;;;;;;9.20;4.97;;;;;;;-0.20;100.00;101370.17;1759758;81;21040;-66
2021/03/31 03:50:23;;;;;;;20.70;7.93;;;;;;;-0.22;100.00;101367.20;1759684;80;21013;-67
2021/03/31 03:52:52;;;;;;;18.20;9.03;;;;;;;-0.23;100.00;101384.95;1759648;81;21047;-66
2021/03/31 03:55:23;;;;;;;7.43;4.33;;;;;;;-0.24;100.00;101386.35;1759741;81;21021;-66
2021/03/31 03:57:52;;;;;;;9.70;5.67;;;;;;;-0.25;100.00;101392.14;1759692;81;21089;-67
2021/03/31 04:00:23;;;;;;;11.00;4.03;;;;;;;-0.27;100.00;101383.82;1759695;81;20938;-67
2021/03/31 04:02:55;;;;;;;4.83;2.43;;;;;;;-0.28;100.00;101388.77;1759702;81;21479;-66
2021/03/31 04:05:24;;;;;;;2.70;1.90;;;;;;;-0.29;100.00;101390.53;1699371;84;26995;-66
2021/03/31 04:07:54;;;;;;;2.03;1.87;;;;;;;-0.29;100.00;101391.86;1701742;84;21207;-66
2021/03/31 04:10:26;;;;;;;2.27;2.07;;;;;;;-0.27;100.00;101394.45;1701929;84;21057;-67
2021/03/31 04:12:58;;;;;;;7.37;3.43;;;;;;;-0.26;100.00;101388.22;1701714;84;21039;-66
2021/03/31 04:15:26;;;;;;;6.03;4.17;;;;;;;-0.24;100.00;101385.87;1701822;84;21019;-67
2021/03/31 04:17:54;;;;;;;4.43;3.70;;;;;;;-0.23;100.00;101379.64;1701891;84;21042;-66
2021/03/31 04:20:23;;;;;;;6.30;3.13;;;;;;;-0.21;100.00;101383.09;1701744;84;21226;-67
2021/03/31 04:22:51;;;;;;;5.27;4.30;;;;;;;-0.20;100.00;101370.66;1699127;84;21125;-66
2021/03/31 04:25:22;;;;;;;5.13;3.43;;;;;;;-0.18;100.00;101371.44;1726910;81;21096;-67
2021/03/31 04:27:51;;;;;;;4.40;3.33;;;;;;;-0.16;100.00;101367.39;1716549;83;21019;-66
2021/03/31 04:30:22;;;;;;;5.13;3.60;;;;;;;-0.15;100.00;101363.33;1726954;83;21153;-66
2021/03/31 04:32:51;;;;;;;7.47;3.63;;;;;;;-0.12;100.00;101368.52;1716565;82;22186;-67
2021/03/31 04:35:21;;;;;;;4.97;3.47;;;;;;;-0.10;100.00;101368.45;1726802;83;21110;-67
2021/03/31 04:37:51;;;;;;;7.40;3.73;;;;;;;-0.07;100.00;101367.84;1716604;83;21023;-66
2021/03/31 04:40:20;;;;;;;14.13;6.60;;;;;;;-0.04;100.00;101365.02;1726868;83;21174;-66
2021/03/31 04:42:48;;;;;;;10.07;5.27;;;;;;;0.04;100.00;101362.50;1716507;83;20963;-67
2021/03/31 04:45:18;;;;;;;7.83;4.10;;;;;;;0.07;100.00;101359.67;1726912;83;21124;-67
2021/03/31 04:47:45;;;;;;;8.97;4.23;;;;;;;0.12;100.00;101358.52;1716580;83;21805;-66
2021/03/31 04:50:15;;;;;;;9.53;5.10;;;;;;;0.18;100.00;101359.59;1726767;83;21018;-66
2021/03/31 04:52:43;;;;;;;7.40;4.97;;;;;;;0.26;100.00;101353.04;1716625;82;21607;-67
2021/03/31 04:55:12;;;;;;;13.10;4.37;;;;;;;0.33;100.00;101353.99;1726890;83;21097;-66
2021/03/31 04:57:40;;;;;;;32.80;12.80;;;;;;;0.42;100.00;101356.69;1716554;83;21281;-65
2021/03/31 05:00:11;;;;;;;40.33;15.83;;;;;;;0.52;100.00;101368.63;1726732;83;21126;-66
2021/03/31 05:02:38;;;;;;;33.17;14.07;;;;;;;0.64;100.00;101363.63;1736841;82;21507;-66
2021/03/31 05:05:08;;;;;;;18.97;10.63;;;;;;;0.78;100.00;101366.95;1768858;81;21017;-67
2021/03/31 05:07:36;;;;;;;20.93;9.47;;;;;;;0.89;100.00;101370.81;1746484;82;21593;-67
2021/03/31 05:10:05;;;;;;;34.63;15.70;;;;;;;1.04;100.00;101366.51;1768792;81;21465;-68
2021/03/31 05:12:33;;;;;;;34.47;17.63;;;;;;;1.20;100.00;101367.07;1746227;82;21077;-69
2021/03/31 05:15:01;;;;;;;26.90;13.13;;;;;;;1.36;100.00;101369.33;1768884;81;20942;-70
2021/03/31 05:17:32;;;;;;;20.47;11.37;;;;;;;1.49;100.00;101364.25;1768922;81;20947;-69
2021/03/31 05:20:01;;;;;;;8.73;5.60;;;;;;;1.62;100.00;101365.80;1773434;79;20958;-68
2021/03/31 05:22:29;;;;;;;4.17;3.53;;;;;;;1.74;100.00;101374.48;1816470;79;21188;-67
2021/03/31 05:24:57;;;;;;;7.00;4.57;;;;;;;1.81;100.00;101373.20;1816170;79;21025;-69
2021/03/31 05:27:25;;;;;;;7.80;4.10;;;;;;;1.90;100.00;101363.85;1747518;80;21031;-69
2021/03/31 05:29:53;;;;;;;5.03;3.77;;;;;;;2.04;100.00;101356.44;1747893;81;20971;-70
2021/03/31 05:32:21;;;;;;;9.20;6.27;;;;;;;2.22;100.00;101351.41;1747909;82;21019;-70
2021/03/31 05:34:50;;;;;;;14.27;6.10;;;;;;;2.35;100.00;101342.23;1747958;81;21207;-69
2021/03/31 05:37:19;;;;;;;22.13;9.53;;;;;;;2.46;100.00;101346.52;1747883;82;21009;-69
2021/03/31 05:39:48;;;;;;;30.50;11.40;;;;;;;2.56;100.00;101344.16;1778688;80;21035;-69
2021/03/31 05:42:16;;;;;;;13.20;6.10;;;;;;;2.62;100.00;101340.27;1770681;81;21552;-70
2021/03/31 05:44:44;;;;;;;23.53;9.73;;;;;;;2.77;100.00;101345.23;1771422;79;21020;-69
2021/03/31 05:49:43;;;;;;;13.27;4.97;;;;;;;3.08;100.00;101335.40;1706636;83;21562;-70
2021/03/31 05:52:12;;;;;;;15.47;6.17;;;;;;;3.17;100.00;101331.72;1727171;83;21067;-72
2021/03/31 05:54:41;;;;;;;9.87;4.87;;;;;;;3.34;100.00;101329.35;1727616;83;21024;-69
2021/03/31 05:57:09;;;;;;;8.33;4.70;;;;;;;3.51;100.00;101324.81;1727386;83;20902;-67
2021/03/31 05:59:38;;;;;;;12.90;5.40;;;;;;;3.71;100.00;101326.25;1727597;83;21213;-67
2021/03/31 06:02:06;;;;;;;4.77;3.00;;;;;;;3.88;100.00;101315.81;1727737;83;21608;-68
2021/03/31 06:04:34;;;;;;;6.57;3.03;;;;;;;4.11;100.00;101319.25;1727772;83;21012;-68
2021/03/31 06:07:12;;;;;;;8.50;4.60;;;;;;;4.37;100.00;101314.89;1874097;76;27885;-67
2021/03/31 06:10:22;;;;;;;10.50;5.17;;;;;;;4.58;100.00;101323.80;1861728;77;21334;-70
2021/03/31 06:12:59;;;;;;;21.67;8.83;;;;;;;4.80;100.00;101323.26;1861540;77;23400;-71
2021/03/31 06:15:38;;;;;;;22.43;10.23;;;;;;;4.98;100.00;101322.99;1861656;77;21003;-71
2021/03/31 06:18:15;;;;;;;29.60;11.33;;;;;;;5.08;100.00;101314.22;1861576;77;21405;-70
2021/03/31 06:21:00;;;;;;;9.93;5.90;;;;;;;5.26;100.00;101313.44;1849466;77;20942;-70
2021/03/31 06:26:34;;;;;;;15.40;6.07;;;;;;;5.57;100.00;101305.92;1845343;77;22409;-68
2021/03/31 06:29:05;;;;;;;8.30;4.23;;;;;;;5.71;100.00;101310.33;1861821;76;21014;-70
2021/03/31 06:31:43;;;;;;;11.48;5.15;;;;;;;5.87;100.00;101303.38;1836411;76;20988;-69
2021/03/31 06:34:22;;;;;;;10.00;4.43;;;;;;;6.04;100.00;101293.67;1846043;76;26461;-69
2021/03/31 06:36:56;;;;;;;7.33;3.07;;;;;;;6.15;100.00;101301.44;1810790;79;21017;-68
2021/03/31 06:39:30;;;;;;;63.55;24.90;;;;;;;6.24;100.00;101287.33;1808022;79;22462;-71
2021/03/31 06:42:08;;;;;;;30.03;12.63;;;;;;;6.33;100.00;101288.48;1747024;82;20946;-69
2021/03/31 06:49:41;;;;;;;5.17;3.77;;;;;;;6.91;100.00;101276.55;1704407;82;21088;-69
2021/03/31 06:52:11;;;;;;;6.03;3.50;;;;;;;7.18;100.00;101277.09;1709923;82;21399;-69
2021/03/31 06:54:52;;;;;;;6.60;3.73;;;;;;;7.41;100.00;101268.56;1702518;82;21104;-69
2021/03/31 06:57:32;;;;;;;5.73;4.13;;;;;;;7.52;100.00;101266.88;1711931;82;21084;-69
2021/03/31 07:00:14;;;;;;;5.43;3.13;;;;;;;7.51;100.00;101259.30;1711997;83;21093;-70
2021/03/31 07:02:45;;;;;;;6.90;3.90;;;;;;;7.52;100.00;101256.11;1685638;84;21200;-68
2021/03/31 07:05:13;;;;;;;3.97;2.80;;;;;;;7.56;100.00;101255.75;1715202;83;21382;-69
2021/03/31 07:07:42;;;;;;;4.10;2.20;;;;;;;7.80;100.00;101256.11;1708946;83;20988;-71
2021/03/31 07:10:16;;;;;;;11.17;4.00;;;;;;;8.02;100.00;101248.98;1695144;84;21098;-71
2021/03/31 07:12:51;;;;;;;33.33;11.53;;;;;;;8.12;100.00;101245.41;1699576;81;20998;-72
2021/03/31 07:15:25;;;;;;;7.50;4.50;;;;;;;8.20;100.00;101239.88;1683216;82;20987;-69
2021/03/31 07:17:55;;;;;;;11.10;3.40;;;;;;;8.27;100.00;101240.61;1700323;82;21220;-69
2021/03/31 07:20:26;;;;;;;3.50;2.70;;;;;;;8.42;100.00;101227.72;1702703;82;21087;-69
2021/03/31 07:23:04;;;;;;;2.50;1.67;;;;;;;8.47;100.00;101218.77;1890050;76;22730;-69
2021/03/31 07:25:32;;;;;;;6.23;3.00;;;;;;;8.45;100.00;101219.89;1853596;75;21032;-70
2021/03/31 07:28:02;;;;;;;2.13;1.93;;;;;;;8.51;100.00;101222.90;1863223;76;21523;-68
2021/03/31 07:30:30;;;;;;;5.80;2.53;;;;;;;8.68;100.00;101219.30;1788765;79;21038;-72
2021/03/31 07:33:16;;;;;;;5.60;2.50;;;;;;;8.91;100.00;101219.53;1725748;79;21033;-71
2021/03/31 07:35:45;;;;;;;5.20;3.07;;;;;;;9.07;100.00;101217.72;1752175;81;21060;-70
2021/03/31 07:38:18;;;;;;;5.83;2.63;;;;;;;9.33;100.00;101217.78;1738330;82;21078;-69
2021/03/31 07:40:51;;;;;;;7.03;4.30;;;;;;;9.51;100.00;101213.48;1792558;79;20989;-69
2021/03/31 07:43:27;;;;;;;8.10;3.83;;;;;;;9.67;100.00;101215.17;1788583;79;21027;-70
2021/03/31 07:46:11;;;;;;;7.37;3.97;;;;;;;9.83;100.00;101216.02;1794592;79;21206;-70
2021/03/31 07:48:46;;;;;;;3.87;2.57;;;;;;;10.13;100.00;101212.02;1884380;74;22115;-69
2021/03/31 07:51:23;;;;;;;3.60;2.52;;;;;;;10.16;100.00;101208.53;1856460;76;21020;-69
2021/03/31 07:53:53;;;;;;;18.53;8.53;;;;;;;10.03;100.00;101219.61;1721427;82;21174;-69
2021/03/31 07:56:33;;;;;;;21.17;7.87;;;;;;;9.89;100.00;101212.74;1716544;82;21027;-69
2021/03/31 07:59:11;;;;;;;10.60;5.23;;;;;;;9.80;100.00;101210.88;1699914;83;21041;-69
2021/03/31 08:01:57;;;;;;;8.27;4.70;;;;;;;9.84;100.00;101215.50;1720051;82;21049;-69
2021/03/31 08:04:26;;;;;;;11.90;6.23;;;;;;;9.62;100.00;101207.97;1705421;82;21074;-69
2021/03/31 08:07:00;;;;;;;8.83;4.23;;;;;;;9.47;100.00;101205.27;1714505;82;21212;-68
2021/03/31 08:09:33;;;;;;;3.55;2.50;;;;;;;9.58;100.00;101209.25;1717770;82;21056;-74
2021/03/31 08:12:05;;;;;;;21.27;11.33;;;;;;;9.66;100.00;101212.10;1716295;82;21019;-70
2021/03/31 08:14:37;;;;;;;14.20;7.72;;;;;;;9.67;100.00;101207.08;1715524;82;21127;-68
2021/03/31 08:17:10;;;;;;;7.33;3.73;;;;;;;9.74;100.00;101199.28;1718319;82;20925;-68
2021/03/31 08:19:44;;;;;;;17.53;8.93;;;;;;;9.91;100.00;101203.16;1689127;84;21251;-68
2021/03/31 08:22:29;;;;;;;12.83;6.13;;;;;;;10.13;100.00;101189.04;1679039;84;21212;-68
2021/03/31 08:24:59;;;;;;;6.78;4.45;;;;;;;10.36;100.00;101184.28;1683085;84;21598;-70
2021/03/31 08:27:30;;;;;;;5.58;3.60;;;;;;;10.47;100.00;101184.13;1680700;83;21080;-68
2021/03/31 08:29:59;;;;;;;11.40;6.05;;;;;;;10.56;100.00;101183.78;1715191;82;21462;-67
2021/03/31 08:32:27;;;;;;;6.95;4.20;;;;;;;10.76;100.00;101175.14;1715640;82;21211;-66
2021/03/31 08:34:57;;;;;;;6.22;3.95;;;;;;;11.03;100.00;101173.04;1707427;83;21244;-67
2021/03/31 08:37:29;;;;;;;9.35;4.17;;;;;;;11.35;100.00;101176.70;1719578;82;21017;-69
2021/03/31 08:40:08;;;;;;;22.90;11.20;;;;;;;11.45;100.00;101171.23;1854014;76;22665;-68
2021/03/31 08:42:36;;;;;;;14.53;6.58;;;;;;;11.42;100.00;101172.91;1798383;78;21004;-69
2021/03/31 08:45:07;;;;;;;4.87;3.05;;;;;;;11.24;100.00;101166.55;1804452;77;21463;-68
2021/03/31 08:47:36;;;;;;;3.72;2.47;;;;;;;10.94;100.00;101159.00;1799854;78;20988;-67
2021/03/31 08:50:08;;;;;;;2.47;1.95;;;;;;;10.89;100.00;101158.11;1753429;77;20989;-69
2021/03/31 08:52:38;;;;;;;3.90;2.65;;;;;;;10.99;100.00;101149.95;1717481;81;21100;-69
2021/03/31 08:55:10;;;;;;;12.40;7.05;;;;;;;11.00;100.00;101149.81;1704432;81;20988;-69
2021/03/31 08:57:45;;;;;;;9.57;5.00;;;;;;;10.99;100.00;101141.33;1877575;74;22737;-68
2021/03/31 09:00:14;;;;;;;10.32;4.08;;;;;;;10.97;100.00;101144.68;1773273;79;21554;-70
2021/03/31 09:02:42;;;;;;;17.12;8.60;;;;;;;11.19;100.00;101142.13;1793212;79;21189;-69
2021/03/31 09:05:11;;;;;;;7.83;3.65;;;;;;;11.44;100.00;101132.11;1800706;79;20978;-70
2021/03/31 09:07:39;;;;;;;5.03;2.25;;;;;;;11.53;100.00;101131.23;1782452;79;21582;-71
2021/03/31 09:10:11;;;;;;;9.60;4.62;;;;;;;11.59;100.00;101137.38;1785723;79;20994;-71
2021/03/31 09:12:40;;;;;;;15.78;7.50;;;;;;;11.73;100.00;101126.03;1683859;83;21041;-71
2021/03/31 09:15:13;;;;;;;7.70;5.28;;;;;;;11.74;100.00;101130.97;1723969;82;21201;-70
2021/03/31 09:17:43;;;;;;;6.97;3.42;;;;;;;11.83;100.00;101131.89;1726597;83;21036;-69
2021/03/31 09:20:12;;;;;;;3.42;2.70;;;;;;;11.89;100.00;101125.36;1777990;77;21267;-70
2021/03/31 09:22:40;;;;;;;7.10;3.77;;;;;;;11.95;100.00;101120.73;1790137;79;20998;-70
2021/03/31 09:25:11;;;;;;;3.35;2.47;;;;;;;12.11;100.00;101114.61;1781371;80;21057;-73
2021/03/31 09:27:41;;;;;;;4.70;2.15;;;;;;;12.20;100.00;101110.60;1763465;80;22260;-71
2021/03/31 09:30:13;;;;;;;3.98;2.70;;;;;;;12.38;100.00;101105.16;1784932;79;21614;-70
2021/03/31 09:32:50;;;;;;;3.42;3.05;;;;;;;12.57;100.00;101109.08;1772818;80;21341;-72
2021/03/31 09:35:17;;;;;;;;;;;;;;;12.79;100.00;101104.14;1776483;80;21049;-72
2021/03/31 09:37:49;;;;;;;3.83;2.55;;;;;;;12.87;100.00;101099.61;1765774;80;20171;-73
2021/03/31 09:40:23;;;;;;;2.67;2.35;;;;;;;12.77;100.00;101106.16;1743871;81;21220;-71
2021/03/31 09:42:58;;;;;;;4.22;3.20;;;;;;;12.73;100.00;101099.69;1725526;83;20977;-71
2021/03/31 09:45:35;;;;;;;2.53;2.33;;;;;;;12.75;100.00;101087.32;1844777;76;22669;-69
2021/03/31 09:48:04;;;;;;;5.15;3.33;;;;;;;12.87;100.00;101090.11;1811584;78;21664;-70
2021/03/31 09:50:33;;;;;;;4.15;3.10;;;;;;;13.09;100.00;101090.56;1729108;80;21375;-71
2021/03/31 09:53:04;;;;;;;2.55;2.10;;;;;;;13.28;100.00;101082.69;1782111;79;21019;-70
2021/03/31 09:55:34;;;;;;;4.15;2.95;;;;;;;13.47;100.00;101082.45;1777252;79;21604;-71
2021/03/31 09:58:03;;;;;;;2.22;2.05;;;;;;;13.70;100.00;101082.33;1765133;79;21015;-71
2021/03/31 10:00:35;;;;;;;3.47;2.72;;;;;;;13.91;100.00;101076.42;1776985;78;20953;-72
2021/03/31 10:03:06;;;;;;;3.47;2.50;;;;;;;14.02;100.00;101074.73;1655249;85;21406;-71
2021/03/31 10:05:39;;;;;;;2.52;2.27;;;;;;;14.04;100.00;101067.25;1640701;85;21048;-70
2021/03/31 10:08:15;;;;;;;3.90;2.62;;;;;;;14.14;100.00;101070.66;1647731;84;21087;-72
2021/03/31 10:10:48;;;;;;;3.87;2.80;;;;;;;14.15;100.00;101062.86;1658508;86;21051;-71
2021/03/31 10:13:18;;;;;;;2.67;2.10;;;;;;;14.14;100.00;101061.66;1684209;83;21054;-74
2021/03/31 10:16:07;;;;;;;4.08;2.62;;;;;;;14.35;100.00;101058.44;1676189;84;21451;-74
2021/03/31 10:18:35;;;;;;;2.15;1.90;;;;;;;14.57;100.00;101058.23;1675654;84;20997;-74
2021/03/31 10:21:05;;;;;;;4.28;2.58;;;;;;;14.72;100.00;101051.09;1667850;86;21064;-74
2021/03/31 10:23:40;;;;;;;1.85;1.75;;;;;;;14.70;100.00;101050.95;1677768;83;21241;-73
2021/03/31 10:26:28;;;;;;;2.65;2.30;;;;;;;14.70;100.00;101057.23;1667396;84;20937;-73
2021/03/31 10:29:03;;;;;;;4.20;2.45;;;;;;;14.66;100.00;101047.72;1669549;86;22219;-73
2021/03/31 10:31:39;;;;;;;3.92;3.00;;;;;;;14.54;100.00;101041.74;1665994;84;21072;-73
2021/03/31 10:34:10;;;;;;;7.28;3.08;;;;;;;14.50;100.00;101039.53;1666314;83;21641;-77
2021/03/31 10:53:44;;;;;;;2.20;2.00;;;;;;;15.34;100.00;101012.73;1748665;79;20994;-74
2021/03/31 10:56:12;;;;;;;7.10;3.70;;;;;;;15.45;100.00;101002.78;1763270;79;21028;-75
2021/03/31 10:58:41;;;;;;;11.55;3.87;;;;;;;15.50;100.00;100999.53;1770443;80;21029;-74
2021/03/31 11:01:10;;;;;;;5.87;3.35;;;;;;;15.50;100.00;100999.53;1768892;79;21933;-70
2021/03/31 11:03:39;;;;;;;2.83;2.40;;;;;;;15.69;99.71;100992.23;1739348;80;21543;-66
2021/03/31 11:06:09;;;;;;;3.80;3.40;;;;;;;15.84;98.06;100996.41;1761183;81;21555;-67
2021/03/31 11:08:39;;;;;;;1.90;1.67;;;;;;;15.98;94.57;100989.84;1738545;81;21025;-68
2021/03/31 11:11:09;;;;;;;2.52;1.87;;;;;;;16.02;94.02;100987.91;1763163;79;21058;-67
2021/03/31 11:13:39;;;;;;;2.45;1.90;;;;;;;16.07;91.38;100984.64;1790135;79;21525;-67
2021/03/31 11:16:10;;;;;;;2.50;1.95;;;;;;;16.12;89.71;100978.95;1767693;81;21580;-66
2021/03/31 11:26:48;;;;;;;2.00;1.70;;;;;;;16.09;85.43;100962.95;1713170;82;21482;-68
2021/03/31 11:29:17;;;;;;;2.33;1.98;;;;;;;16.26;84.46;100965.02;1697674;84;21081;-68
2021/03/31 11:31:45;;;;;;;2.55;2.35;;;;;;;16.34;82.87;100958.61;1697768;84;20993;-70
2021/03/31 11:34:13;;;;;;;1.82;1.65;;;;;;;16.48;82.85;100958.30;1700780;83;21001;-67
2021/03/31 11:36:41;;;;;;;1.75;1.62;;;;;;;16.54;79.33;100948.02;1757746;81;21026;-67
2021/03/31 11:39:10;;;;;;;2.10;1.92;;;;;;;16.63;75.66;100945.51;1747964;79;21668;-66
2021/03/31 11:41:39;;;;;;;2.27;1.75;;;;;;;16.74;71.35;100941.45;1754126;80;21032;-68
2021/03/31 11:44:10;;;;;;;1.72;1.62;;;;;;;16.74;68.57;100940.08;1746188;82;21037;-68
2021/03/31 11:46:39;;;;;;;3.10;1.85;;;;;;;16.65;70.38;100946.16;1752761;80;21013;-70
2021/03/31 11:49:07;;;;;;;2.37;1.92;;;;;;;16.64;71.28;100935.42;1690956;83;20998;-69
2021/03/31 11:51:35;;;;;;;1.47;1.37;;;;;;;16.75;72.35;100931.36;1770586;80;21369;-69
2021/03/31 11:54:04;;;;;;;1.82;1.57;;;;;;;16.84;71.96;100930.28;1748543;80;21083;-69
2021/03/31 11:56:32;;;;;;;4.20;2.45;;;;;;;16.84;72.32;100927.02;1748659;79;20998;-75
2021/03/31 11:59:00;;;;;;;2.80;2.25;;;;;;;16.92;73.20;100923.85;1740050;81;21022;-70
2021/03/31 12:01:30;;;;;;;2.65;1.17;;;;;;;17.03;71.15;100916.52;1765459;79;21039;-69
2021/03/31 12:03:57;;;;;;;1.95;1.82;;;;;;;17.11;72.57;100908.73;1760895;79;21360;-69
2021/03/31 12:06:26;;;;;;;1.62;1.30;;;;;;;17.25;70.91;100908.68;1674857;84;21598;-70
2021/03/31 12:08:54;;;;;;;2.42;2.12;;;;;;;17.33;66.93;100916.43;1697383;83;21009;-68
2021/03/31 12:11:24;;;;;;;1.75;1.40;;;;;;;17.21;65.58;100912.85;1706136;81;21021;-67
2021/03/31 12:13:53;;;;;;;2.25;1.85;;;;;;;17.16;67.45;100906.28;1749112;81;20963;-68